La Banda, Argentina
Current Conditions -  °F | °C
As of 8:00 AM on Saturday 01 Nov 2014 (Local Time) from SANT Reporting Station
Drizzle Drizzle  
Wind Chill: 16°   Ceiling: 300
Heat Index: 16°   Visibility: 0.93mi
Dew Point: 15°   Wind: 7mph
Humidity: 94%   Direction: 140°SE
Pressure: 30.06"   Gusts: NA
Location:  27.73°S, 64.25°W
Report Text: SANT 011100Z 14006KT 1500 -DZBR SCT002BKN003 OVC035 16/15 Q1018
Loading
Personal Weather Stations






























Interactive Weather Map
Tropical Storm Tracking
New forecast layout! Learn more

10-Day Weather Forecast

Advertisements
Track Severe Weather on mobile